createdAt,value
2019-05-07T00:00:08.229Z,79
2019-05-07T00:00:44.450Z,79
2019-05-07T00:03:28.451Z,79
2019-05-07T00:04:08.324Z,79
2019-05-07T00:04:44.267Z,79
2019-05-07T00:05:20.232Z,79
2019-05-07T00:06:20.276Z,79
2019-05-07T00:06:56.246Z,79
2019-05-07T00:07:32.685Z,79
2019-05-07T00:08:08.295Z,79
2019-05-07T00:08:45.646Z,79
2019-05-07T00:09:32.906Z,79
2019-05-07T00:10:08.232Z,79
2019-05-07T00:10:44.271Z,79
2019-05-07T00:11:22.832Z,79
2019-05-07T00:11:56.262Z,79
2019-05-07T00:12:32.911Z,79
2019-05-07T00:13:08.201Z,79
2019-05-07T00:13:45.073Z,79
2019-05-07T00:14:20.282Z,79
2019-05-07T00:15:04.816Z,79
2019-05-07T00:15:33.383Z,79
2019-05-07T00:16:08.292Z,79
2019-05-07T00:16:44.262Z,79
2019-05-07T00:17:20.232Z,79
2019-05-07T00:17:56.185Z,78
2019-05-07T00:18:32.897Z,79
2019-05-07T00:19:08.255Z,78
2019-05-07T00:19:44.344Z,79
2019-05-07T00:20:20.209Z,79
2019-05-07T00:20:56.281Z,79
2019-05-07T00:21:33.237Z,79
2019-05-07T00:22:08.222Z,79
2019-05-07T00:22:44.197Z,79
2019-05-07T00:23:20.302Z,79
2019-05-07T00:23:56.248Z,79
2019-05-07T00:24:33.743Z,79
2019-05-07T00:25:08.233Z,79
2019-05-07T00:25:44.275Z,79
2019-05-07T00:26:22.529Z,79
2019-05-07T00:26:56.222Z,79
2019-05-07T00:27:32.708Z,79
2019-05-07T00:28:08.285Z,79
2019-05-07T00:28:44.230Z,79
2019-05-07T00:29:22.603Z,79
2019-05-07T00:29:56.295Z,79
2019-05-07T00:30:33.852Z,79
2019-05-07T00:31:08.251Z,79
2019-05-07T00:31:44.229Z,79
2019-05-07T00:32:22.902Z,79
2019-05-07T00:32:56.266Z,79
2019-05-07T00:33:32.962Z,79
2019-05-07T00:34:08.210Z,79
2019-05-07T00:34:44.307Z,79
2019-05-07T00:35:22.371Z,79
2019-05-07T00:35:56.236Z,79
2019-05-07T00:36:32.992Z,79
2019-05-07T00:37:08.315Z,79
2019-05-07T00:37:44.265Z,80
2019-05-07T00:38:22.634Z,79
2019-05-07T00:38:56.197Z,80
2019-05-07T00:39:33.399Z,79
2019-05-07T00:40:08.265Z,79
2019-05-07T00:40:44.255Z,80
2019-05-07T00:41:20.192Z,80
2019-05-07T00:41:56.303Z,80
2019-05-07T00:42:33.308Z,79
2019-05-07T00:43:08.225Z,79
2019-05-07T00:43:44.196Z,80
2019-05-07T00:44:22.604Z,80
2019-05-07T00:44:56.259Z,80
2019-05-07T00:45:33.212Z,80
2019-05-07T00:46:08.252Z,80
2019-05-07T00:46:44.287Z,80
2019-05-07T00:47:22.483Z,80
2019-05-07T00:47:56.221Z,80
2019-05-07T00:48:33.476Z,80
2019-05-07T00:49:08.281Z,80
2019-05-07T00:49:44.290Z,80
2019-05-07T00:50:22.302Z,80
2019-05-07T00:50:56.213Z,80
2019-05-07T00:51:34.086Z,80
2019-05-07T00:52:11.324Z,80
2019-05-07T00:52:56.242Z,80
2019-05-07T00:53:33.471Z,80
2019-05-07T00:54:20.214Z,80
2019-05-07T00:54:56.181Z,79
2019-05-07T00:55:44.179Z,79
2019-05-07T00:56:33.800Z,79
2019-05-07T00:57:08.266Z,79
2019-05-07T00:58:23.150Z,79
2019-05-07T00:59:08.211Z,79
2019-05-07T00:59:44.307Z,79
2019-05-07T01:00:33.871Z,79
2019-05-07T01:01:22.436Z,79
2019-05-07T01:01:56.266Z,79
2019-05-07T01:03:33.425Z,79
2019-05-07T01:06:44.262Z,79
2019-05-07T01:07:20.218Z,79
2019-05-07T01:08:22.812Z,79
2019-05-07T01:09:08.252Z,79
2019-05-07T01:09:44.216Z,79
2019-05-07T01:10:56.294Z,78
2019-05-07T01:11:44.293Z,78
2019-05-07T01:12:22.682Z,78
2019-05-07T01:13:44.212Z,79
2019-05-07T01:15:35.189Z,79
2019-05-07T01:16:08.343Z,78
2019-05-07T01:17:08.266Z,79
2019-05-07T01:17:44.208Z,78
2019-05-07T01:19:08.172Z,79
2019-05-07T01:19:44.282Z,79
2019-05-07T01:20:22.591Z,79
2019-05-07T01:21:08.282Z,79
2019-05-07T01:21:44.216Z,79
2019-05-07T01:22:22.557Z,79
2019-05-07T01:22:56.264Z,79
2019-05-07T01:23:32.806Z,80
2019-05-07T01:24:08.203Z,80
2019-05-07T01:24:44.159Z,80
2019-05-07T01:25:22.547Z,80
2019-05-07T01:25:56.237Z,80
2019-05-07T01:26:56.266Z,80
2019-05-07T01:27:32.817Z,80
2019-05-07T01:28:08.221Z,79
2019-05-07T01:28:44.287Z,79
2019-05-07T01:29:22.790Z,79
2019-05-07T01:29:56.217Z,79
2019-05-07T01:30:33.081Z,79
2019-05-07T01:31:08.277Z,79
2019-05-07T01:31:44.288Z,80
2019-05-07T01:32:22.424Z,80
2019-05-07T01:32:56.187Z,80
2019-05-07T01:33:33.781Z,80
2019-05-07T01:34:08.251Z,80
2019-05-07T01:34:44.212Z,80
2019-05-07T01:35:22.610Z,80
2019-05-07T01:35:56.279Z,80
2019-05-07T01:36:32.534Z,80
2019-05-07T01:37:08.243Z,80
2019-05-07T01:37:44.232Z,80
2019-05-07T01:38:20.278Z,80
2019-05-07T01:38:56.239Z,80
2019-05-07T01:39:33.241Z,80
2019-05-07T01:40:08.180Z,81
2019-05-07T01:40:44.290Z,81
2019-05-07T01:41:20.230Z,80
2019-05-07T01:41:56.234Z,81
2019-05-07T01:42:36.881Z,81
2019-05-07T01:43:08.262Z,81
2019-05-07T01:43:44.243Z,81
2019-05-07T01:44:22.573Z,81
2019-05-07T01:45:24.842Z,81
2019-05-07T01:45:56.227Z,81
2019-05-07T01:46:33.052Z,81
2019-05-07T01:47:08.277Z,81
2019-05-07T01:47:56.253Z,82
2019-05-07T01:48:32.903Z,82
2019-05-07T01:49:08.199Z,82
2019-05-07T01:49:44.189Z,82
2019-05-07T01:50:56.224Z,82
2019-05-07T01:51:44.240Z,82
2019-05-07T01:52:33.759Z,82
2019-05-07T01:53:08.203Z,82
2019-05-07T01:53:56.201Z,82
2019-05-07T01:54:47.894Z,83
2019-05-07T01:55:44.227Z,83
2019-05-07T01:56:20.182Z,83
2019-05-07T01:56:56.303Z,83
2019-05-07T01:57:56.230Z,83
2019-05-07T01:58:44.186Z,83
2019-05-07T01:59:32.817Z,83
2019-05-07T02:00:22.617Z,83
2019-05-07T02:00:56.291Z,84
2019-05-07T02:01:36.288Z,84
2019-05-07T02:02:08.259Z,84
2019-05-07T02:02:44.183Z,84
2019-05-07T02:03:20.272Z,84
2019-05-07T02:04:08.291Z,84
2019-05-07T02:04:44.280Z,84
2019-05-07T02:05:20.212Z,85
2019-05-07T02:06:08.222Z,85
2019-05-07T02:06:44.182Z,85
2019-05-07T02:07:20.292Z,85
2019-05-07T02:07:56.256Z,85
2019-05-07T02:08:33.435Z,85
2019-05-07T02:09:44.286Z,85
2019-05-07T02:10:20.252Z,85
2019-05-07T02:10:56.210Z,86
2019-05-07T02:11:33.304Z,86
2019-05-07T02:12:22.491Z,86
2019-05-07T02:12:56.264Z,86
2019-05-07T02:13:34.385Z,86
2019-05-07T02:14:08.215Z,86
2019-05-07T02:15:32.892Z,86
2019-05-07T02:16:08.334Z,86
2019-05-07T02:16:44.244Z,86
2019-05-07T02:18:56.206Z,87
2019-05-07T02:19:33.539Z,86
2019-05-07T02:20:08.303Z,87
2019-05-07T02:20:44.211Z,87
2019-05-07T02:21:44.250Z,87
2019-05-07T02:22:32.652Z,87
2019-05-07T02:23:33.626Z,87
2019-05-07T02:24:22.439Z,87
2019-05-07T02:25:08.279Z,87
2019-05-07T02:25:44.245Z,87
2019-05-07T02:26:22.371Z,87
2019-05-07T02:27:08.264Z,87
2019-05-07T02:27:56.224Z,87
2019-05-07T02:28:56.258Z,87
2019-05-07T02:29:44.244Z,87
2019-05-07T02:30:24.126Z,87
2019-05-07T02:31:34.396Z,87
2019-05-07T02:33:35.636Z,88
2019-05-07T02:34:56.187Z,88
2019-05-07T02:36:08.303Z,88
2019-05-07T02:38:23.585Z,88
2019-05-07T02:38:56.186Z,88
2019-05-07T02:39:33.889Z,88
2019-05-07T02:40:08.232Z,88
2019-05-07T02:41:08.267Z,88
2019-05-07T02:41:44.986Z,88
2019-05-07T02:43:08.230Z,88
2019-05-07T02:48:33.937Z,89
2019-05-07T02:49:44.611Z,89
2019-05-07T02:51:56.212Z,89
2019-05-07T02:52:33.030Z,89
2019-05-07T02:53:08.245Z,89
2019-05-07T02:54:20.221Z,89
2019-05-07T02:55:23.475Z,89
2019-05-07T02:56:34.035Z,89
2019-05-07T02:57:34.801Z,90
2019-05-07T02:58:08.308Z,90
2019-05-07T02:58:44.248Z,90
2019-05-07T03:00:08.222Z,90
2019-05-07T03:02:08.285Z,90
2019-05-07T03:02:56.287Z,90
2019-05-07T03:03:34.222Z,90
2019-05-07T03:04:08.212Z,90
2019-05-07T03:04:56.228Z,90
2019-05-07T03:05:35.573Z,90
2019-05-07T03:06:34.606Z,90
2019-05-07T03:08:08.241Z,90
2019-05-07T03:09:08.247Z,90
2019-05-07T03:09:44.219Z,90
2019-05-07T03:10:24.466Z,90
2019-05-07T03:10:56.257Z,90
2019-05-07T03:11:34.663Z,90
2019-05-07T03:12:08.210Z,90
2019-05-07T03:12:44.177Z,90
2019-05-07T03:13:24.487Z,90
2019-05-07T03:13:56.246Z,90
2019-05-07T03:14:33.000Z,90
2019-05-07T03:15:34.032Z,90
2019-05-07T03:16:49.331Z,90
2019-05-07T03:17:33.974Z,90
2019-05-07T03:18:08.249Z,90
2019-05-07T03:18:44.731Z,90
2019-05-07T03:19:20.240Z,90
2019-05-07T03:20:08.191Z,90
2019-05-07T03:21:33.473Z,90
2019-05-07T03:22:08.247Z,90
2019-05-07T03:23:23.285Z,90
2019-05-07T03:23:56.271Z,90
2019-05-07T03:24:34.974Z,90
2019-05-07T03:26:08.261Z,91
2019-05-07T03:26:44.266Z,91
2019-05-07T03:27:23.825Z,91
2019-05-07T03:27:56.278Z,91
2019-05-07T03:28:34.218Z,91
2019-05-07T03:29:08.214Z,91
2019-05-07T03:29:44.900Z,91
2019-05-07T03:30:37.062Z,91
2019-05-07T03:31:08.295Z,91
2019-05-07T03:31:48.114Z,91
2019-05-07T03:32:20.291Z,91
2019-05-07T03:32:57.071Z,91
2019-05-07T03:33:37.522Z,91
2019-05-07T03:34:37.918Z,91
2019-05-07T03:35:08.647Z,91
2019-05-07T03:35:47.841Z,91
2019-05-07T03:36:20.239Z,91
2019-05-07T03:37:45.104Z,91
2019-05-07T03:38:23.426Z,91
2019-05-07T03:38:56.209Z,92
2019-05-07T03:39:34.436Z,92
2019-05-07T03:40:08.171Z,92
2019-05-07T04:11:23.654Z,93
2019-05-07T04:20:56.249Z,94
2019-05-07T04:21:44.240Z,94
2019-05-07T04:22:44.288Z,94
2019-05-07T04:23:24.010Z,94
2019-05-07T04:24:08.238Z,94
2019-05-07T04:24:44.202Z,94
2019-05-07T04:25:56.292Z,94
2019-05-07T04:26:34.605Z,94
2019-05-07T04:27:08.293Z,94
2019-05-07T04:27:47.618Z,94
2019-05-07T04:28:23.307Z,94
2019-05-07T04:28:56.244Z,94
2019-05-07T04:29:35.549Z,94
2019-05-07T04:30:56.190Z,94
2019-05-07T04:43:34.272Z,94
2019-05-07T04:47:08.171Z,94
2019-05-07T04:48:09.266Z,94
2019-05-07T04:49:56.235Z,94
2019-05-07T04:50:56.266Z,94
2019-05-07T04:51:44.261Z,94
2019-05-07T04:52:56.246Z,94
2019-05-07T04:53:33.435Z,94
2019-05-07T04:56:56.197Z,94
2019-05-07T05:01:08.236Z,94
2019-05-07T05:03:20.839Z,93
2019-05-07T05:05:33.596Z,93
2019-05-07T05:06:08.237Z,93
2019-05-07T05:06:44.209Z,93
2019-05-07T05:07:34.171Z,94
2019-05-07T05:13:33.776Z,93
2019-05-07T05:17:54.324Z,92
2019-05-07T05:20:03.508Z,92
2019-05-07T05:20:34.350Z,92
2019-05-07T05:21:32.888Z,92
2019-05-07T05:24:56.661Z,92
2019-05-07T05:28:22.579Z,92
2019-05-07T05:33:33.073Z,92
2019-05-07T05:35:44.883Z,91
2019-05-07T05:44:32.749Z,90
2019-05-07T05:45:56.197Z,90
2019-05-07T05:48:08.934Z,90
2019-05-07T05:48:56.297Z,90
2019-05-07T05:49:32.822Z,89
2019-05-07T05:52:08.276Z,89
2019-05-07T05:53:08.151Z,89
2019-05-07T05:53:44.237Z,88
2019-05-07T05:54:44.150Z,88
2019-05-07T05:56:44.229Z,88
2019-05-07T05:57:56.145Z,87
2019-05-07T06:00:22.644Z,87
2019-05-07T06:06:08.203Z,84
2019-05-07T06:06:44.149Z,84
2019-05-07T06:07:44.176Z,84
2019-05-07T06:09:22.366Z,83
2019-05-07T06:10:22.682Z,82
2019-05-07T06:10:56.158Z,81
2019-05-07T06:11:44.165Z,81
2019-05-07T06:12:33.516Z,82
2019-05-07T06:13:08.256Z,81
2019-05-07T06:13:44.217Z,81
2019-05-07T06:15:44.187Z,80
2019-05-07T06:16:22.539Z,80
2019-05-07T06:17:08.243Z,79
2019-05-07T06:17:56.251Z,79
2019-05-07T06:18:33.307Z,79
2019-05-07T06:19:08.180Z,79
2019-05-07T06:20:08.241Z,76
2019-05-07T06:20:44.198Z,73
2019-05-07T06:21:44.273Z,73
2019-05-07T06:22:22.531Z,73
2019-05-07T06:22:56.146Z,73
2019-05-07T06:24:08.198Z,71
2019-05-07T06:24:44.202Z,72
2019-05-07T06:25:24.132Z,70
2019-05-07T06:27:08.179Z,70
2019-05-07T06:27:44.140Z,69
2019-05-07T06:28:22.875Z,68
2019-05-07T06:28:56.193Z,67
2019-05-07T06:30:56.159Z,67
2019-05-07T06:31:56.166Z,68
2019-05-07T06:32:56.217Z,66
2019-05-07T06:34:22.553Z,63
2019-05-07T06:34:56.124Z,64
2019-05-07T06:35:33.330Z,64
2019-05-07T06:36:08.197Z,65
2019-05-07T06:36:44.209Z,65
2019-05-07T06:37:20.129Z,66
2019-05-07T06:37:56.248Z,66
2019-05-07T06:38:32.649Z,65
2019-05-07T06:39:08.151Z,66
2019-05-07T06:39:44.127Z,66
2019-05-07T06:41:08.244Z,65
2019-05-07T06:42:08.143Z,64
2019-05-07T06:42:44.249Z,64
2019-05-07T06:43:22.415Z,64
2019-05-07T06:43:56.143Z,62
2019-05-07T06:44:32.600Z,63
2019-05-07T06:45:08.216Z,63
2019-05-07T06:45:44.204Z,62
2019-05-07T06:46:20.150Z,61
2019-05-07T06:46:56.122Z,61
2019-05-07T06:47:32.563Z,60
2019-05-07T06:48:46.481Z,59
2019-05-07T06:50:33.292Z,56
2019-05-07T06:51:22.602Z,57
2019-05-07T06:52:08.195Z,57
2019-05-07T06:52:56.181Z,56
2019-05-07T06:54:08.229Z,58
2019-05-07T06:54:56.228Z,59
2019-05-07T06:55:32.991Z,60
2019-05-07T06:57:08.210Z,63
2019-05-07T06:59:22.681Z,65
2019-05-07T06:59:56.129Z,66
2019-05-07T07:00:32.558Z,66
2019-05-07T07:01:08.205Z,66
2019-05-07T07:01:44.158Z,66
2019-05-07T07:02:22.721Z,67
2019-05-07T07:03:08.130Z,67
2019-05-07T07:03:44.224Z,68
2019-05-07T07:04:33.683Z,68
2019-05-07T07:05:08.178Z,69
2019-05-07T07:05:44.157Z,69
2019-05-07T07:06:20.154Z,70
2019-05-07T07:06:56.223Z,70
2019-05-07T07:07:37.999Z,70
2019-05-07T07:08:08.158Z,69
2019-05-07T07:08:44.135Z,68
2019-05-07T07:09:22.845Z,66
2019-05-07T07:09:56.180Z,67
2019-05-07T07:10:32.901Z,65
2019-05-07T07:11:08.135Z,65
2019-05-07T07:11:44.281Z,64
2019-05-07T07:12:26.273Z,64
2019-05-07T07:12:56.150Z,63
2019-05-07T07:13:32.853Z,63
2019-05-07T07:14:08.200Z,61
2019-05-07T07:14:44.173Z,60
2019-05-07T07:15:20.139Z,60
2019-05-07T07:15:56.110Z,60
2019-05-07T07:16:33.178Z,60
2019-05-07T07:17:08.165Z,59
2019-05-07T07:17:44.138Z,59
2019-05-07T07:18:20.130Z,57
2019-05-07T07:18:56.457Z,58
2019-05-07T07:19:36.441Z,57
2019-05-07T07:20:08.138Z,57
2019-05-07T07:20:44.097Z,56
2019-05-07T07:21:22.497Z,56
2019-05-07T07:21:56.210Z,56
2019-05-07T07:22:32.602Z,55
2019-05-07T07:23:08.150Z,55
2019-05-07T07:23:44.202Z,55
2019-05-07T07:24:22.650Z,54
2019-05-07T07:24:56.127Z,54
2019-05-07T07:25:33.191Z,53
2019-05-07T07:26:08.189Z,51
2019-05-07T07:26:44.173Z,50
2019-05-07T07:27:22.100Z,50
2019-05-07T07:27:56.102Z,51
2019-05-07T07:28:33.365Z,51
2019-05-07T07:29:08.164Z,50
2019-05-07T07:29:45.646Z,50
2019-05-07T07:30:22.313Z,49
2019-05-07T07:30:56.178Z,50
2019-05-07T07:31:32.581Z,49
2019-05-07T07:32:08.121Z,51
2019-05-07T07:32:44.089Z,51
2019-05-07T07:33:22.226Z,52
2019-05-07T07:33:56.155Z,53
2019-05-07T07:34:33.881Z,54
2019-05-07T07:35:08.087Z,52
2019-05-07T07:35:44.188Z,52
2019-05-07T07:36:22.321Z,53
2019-05-07T07:37:15.654Z,51
2019-05-07T07:38:08.223Z,51
2019-05-07T07:38:44.168Z,50
2019-05-07T07:39:22.508Z,49
2019-05-07T07:39:56.193Z,50
2019-05-07T07:40:33.330Z,50
2019-05-07T07:41:08.136Z,49
2019-05-07T07:41:44.134Z,49
2019-05-07T07:42:20.192Z,49
2019-05-07T07:42:56.173Z,49
2019-05-07T07:43:33.112Z,50
2019-05-07T07:44:08.104Z,50
2019-05-07T07:44:44.209Z,50
2019-05-07T07:45:33.026Z,50
2019-05-07T07:46:08.177Z,49
2019-05-07T07:46:44.148Z,50
2019-05-07T07:47:22.587Z,50
2019-05-07T07:47:56.190Z,50
2019-05-07T07:48:32.779Z,51
2019-05-07T07:49:15.360Z,51
2019-05-07T07:49:44.100Z,52
2019-05-07T07:50:22.862Z,53
2019-05-07T07:50:56.159Z,53
2019-05-07T07:51:46.353Z,53
2019-05-07T07:52:20.122Z,53
2019-05-07T07:52:56.153Z,52
2019-05-07T07:53:35.925Z,54
2019-05-07T07:54:08.151Z,54
2019-05-07T07:54:44.128Z,53
2019-05-07T07:55:22.476Z,53
2019-05-07T07:55:56.191Z,53
2019-05-07T07:56:56.169Z,54
2019-05-07T07:57:44.091Z,56
2019-05-07T07:58:22.390Z,56
2019-05-07T07:58:56.153Z,57
2019-05-07T07:59:33.458Z,57
2019-05-07T08:00:08.112Z,57
2019-05-07T08:00:44.178Z,55
2019-05-07T08:01:22.391Z,50
2019-05-07T08:01:56.122Z,51
2019-05-07T08:02:32.833Z,52
2019-05-07T08:03:08.174Z,50
2019-05-07T08:03:44.152Z,50
2019-05-07T08:04:20.126Z,50
2019-05-07T08:04:56.082Z,51
2019-05-07T08:05:56.106Z,52
2019-05-07T08:06:33.248Z,52
2019-05-07T08:07:08.200Z,51
2019-05-07T08:08:08.094Z,49
2019-05-07T08:08:44.176Z,49
2019-05-07T08:09:26.133Z,50
2019-05-07T08:10:22.600Z,52
2019-05-07T08:10:56.135Z,53
2019-05-07T08:11:32.538Z,54
2019-05-07T08:12:08.449Z,54
2019-05-07T08:12:44.178Z,53
2019-05-07T08:13:44.074Z,54
2019-05-07T08:14:22.428Z,53
2019-05-07T08:15:24.729Z,52
2019-05-07T08:15:44.147Z,52
2019-05-07T08:16:22.531Z,52
2019-05-07T08:16:56.096Z,51
2019-05-07T08:17:44.071Z,51
2019-05-07T08:18:22.534Z,50
2019-05-07T08:18:56.145Z,50
2019-05-07T08:19:33.494Z,50
2019-05-07T08:20:08.068Z,49
2019-05-07T08:20:44.156Z,46
2019-05-07T08:21:22.471Z,47
2019-05-07T08:21:56.088Z,47
2019-05-07T08:22:33.573Z,48
2019-05-07T08:23:08.170Z,46
2019-05-07T08:23:44.145Z,46
2019-05-07T08:24:20.105Z,47
2019-05-07T08:24:56.051Z,45
2019-05-07T08:25:32.696Z,44
2019-05-07T08:26:08.110Z,44
2019-05-07T08:26:44.083Z,43
2019-05-07T08:27:22.436Z,44
2019-05-07T08:27:58.744Z,43
2019-05-07T08:28:32.660Z,44
2019-05-07T08:29:08.077Z,43
2019-05-07T08:29:44.045Z,43
2019-05-07T08:30:22.505Z,44
2019-05-07T08:30:56.113Z,44
2019-05-07T08:31:44.113Z,44
2019-05-07T08:32:22.482Z,44
2019-05-07T08:32:56.188Z,45
2019-05-07T08:33:32.851Z,44
2019-05-07T08:34:08.116Z,44
2019-05-07T08:34:44.082Z,44
2019-05-07T08:35:33.202Z,44
2019-05-07T08:36:22.458Z,44
2019-05-07T08:36:56.169Z,44
2019-05-07T08:37:44.177Z,44
2019-05-07T08:38:22.440Z,45
2019-05-07T08:38:56.123Z,44
2019-05-07T08:39:33.175Z,45
2019-05-07T08:40:08.200Z,46
2019-05-07T08:40:44.127Z,47
2019-05-07T08:41:22.238Z,44
2019-05-07T08:41:56.065Z,44
2019-05-07T08:42:32.647Z,42
2019-05-07T08:43:08.233Z,42
2019-05-07T08:43:44.182Z,42
2019-05-07T08:44:22.574Z,40
2019-05-07T08:44:56.373Z,40
2019-05-07T08:45:33.368Z,39
2019-05-07T08:46:08.152Z,40
2019-05-07T08:46:44.131Z,39
2019-05-07T08:47:20.193Z,39
2019-05-07T08:47:56.253Z,39
2019-05-07T08:48:32.681Z,40
2019-05-07T08:49:08.126Z,40
2019-05-07T08:49:44.245Z,42
2019-05-07T08:50:21.933Z,40
2019-05-07T08:50:56.087Z,40
2019-05-07T08:51:33.230Z,41
2019-05-07T08:52:08.148Z,39
2019-05-07T08:52:44.105Z,39
2019-05-07T08:53:44.170Z,39
2019-05-07T08:54:20.109Z,38
2019-05-07T08:54:56.085Z,35
2019-05-07T08:55:32.840Z,36
2019-05-07T08:56:08.167Z,36
2019-05-07T08:56:44.104Z,36
2019-05-07T08:57:20.066Z,37
2019-05-07T08:57:56.064Z,40
2019-05-07T08:58:32.314Z,37
2019-05-07T08:59:08.105Z,41
2019-05-07T09:00:04.834Z,41
2019-05-07T09:00:33.199Z,40
2019-05-07T09:01:08.039Z,40
2019-05-07T09:01:44.134Z,41
2019-05-07T09:02:22.731Z,41
2019-05-07T09:02:56.239Z,42
2019-05-07T09:03:32.937Z,42
2019-05-07T09:04:08.138Z,42
2019-05-07T09:04:44.090Z,41
2019-05-07T09:05:22.359Z,41
2019-05-07T09:05:56.044Z,41
2019-05-07T09:06:32.819Z,41
2019-05-07T09:07:08.097Z,42
2019-05-07T09:07:44.064Z,42
2019-05-07T09:08:32.662Z,41
2019-05-07T09:09:08.048Z,37
2019-05-07T09:09:44.149Z,37
2019-05-07T09:10:22.312Z,39
2019-05-07T09:10:56.062Z,38
2019-05-07T09:11:32.653Z,37
2019-05-07T09:12:08.133Z,36
2019-05-07T09:12:44.089Z,36
2019-05-07T09:13:33.883Z,36
2019-05-07T09:14:08.059Z,35
2019-05-07T09:14:56.055Z,38
2019-05-07T09:15:32.678Z,39
2019-05-07T09:16:20.065Z,40
2019-05-07T09:16:56.127Z,40
2019-05-07T09:17:32.482Z,41
2019-05-07T09:18:08.108Z,42
2019-05-07T09:18:44.036Z,42
2019-05-07T09:19:22.180Z,41
2019-05-07T09:20:20.016Z,41
2019-05-07T09:20:56.101Z,42
2019-05-07T09:21:44.108Z,41
2019-05-07T09:22:20.086Z,40
2019-05-07T09:22:56.082Z,40
2019-05-07T09:23:32.579Z,40
2019-05-07T09:24:08.110Z,40
2019-05-07T09:24:44.083Z,39
2019-05-07T09:25:44.097Z,39
2019-05-07T09:26:22.655Z,40
2019-05-07T09:26:56.033Z,37
2019-05-07T09:27:33.368Z,36
2019-05-07T09:28:22.458Z,34
2019-05-07T09:28:56.100Z,33
2019-05-07T09:29:44.113Z,33
2019-05-07T09:30:22.324Z,34
2019-05-07T09:30:56.040Z,34
2019-05-07T09:31:32.811Z,34
2019-05-07T09:32:08.096Z,34
2019-05-07T09:32:44.072Z,35
2019-05-07T09:33:20.099Z,36
2019-05-07T09:33:56.132Z,36
2019-05-07T09:34:33.245Z,37
2019-05-07T09:35:08.059Z,36
2019-05-07T09:35:44.045Z,36
2019-05-07T09:36:20.126Z,38
2019-05-07T09:36:56.093Z,38
2019-05-07T09:37:33.201Z,37
2019-05-07T09:38:08.038Z,38
2019-05-07T09:38:59.697Z,37
2019-05-07T09:39:56.065Z,36
2019-05-07T09:40:32.645Z,36
2019-05-07T09:41:08.117Z,36
2019-05-07T09:41:44.088Z,35
2019-05-07T09:42:22.430Z,36
2019-05-07T09:42:56.025Z,36
2019-05-07T09:43:33.092Z,35
2019-05-07T09:44:08.103Z,35
2019-05-07T09:44:44.058Z,36
2019-05-07T09:45:20.016Z,35
2019-05-07T09:45:56.115Z,34
2019-05-07T09:46:33.125Z,35
2019-05-07T09:47:08.058Z,34
2019-05-07T09:47:44.029Z,34
2019-05-07T09:48:22.370Z,35
2019-05-07T09:48:56.118Z,35
2019-05-07T09:49:33.268Z,34
2019-05-07T09:50:09.410Z,35
2019-05-07T09:50:44.101Z,35
2019-05-07T09:51:20.089Z,35
2019-05-07T09:51:56.059Z,35
2019-05-07T09:52:32.718Z,35
2019-05-07T09:53:08.110Z,37
2019-05-07T09:53:44.053Z,38
2019-05-07T09:54:32.941Z,38
2019-05-07T09:55:17.923Z,39
2019-05-07T09:55:44.017Z,39
2019-05-07T09:56:32.569Z,40
2019-05-07T09:57:32.258Z,40
2019-05-07T09:58:08.002Z,40
2019-05-07T09:58:44.092Z,41
2019-05-07T09:59:33.087Z,40
2019-05-07T10:00:32.585Z,42
2019-05-07T10:01:08.085Z,43
2019-05-07T10:01:56.097Z,42
2019-05-07T10:02:32.643Z,41
2019-05-07T10:03:08.018Z,41
2019-05-07T10:03:43.996Z,40
2019-05-07T10:04:33.277Z,40
2019-05-07T10:05:08.084Z,41
2019-05-07T10:05:44.057Z,40
2019-05-07T10:06:20.025Z,37
2019-05-07T10:07:22.574Z,38
2019-05-07T10:07:56.020Z,39
2019-05-07T10:09:08.068Z,39
2019-05-07T10:09:56.125Z,37
2019-05-07T10:10:55.993Z,36
2019-05-07T10:11:33.510Z,36
2019-05-07T10:12:08.061Z,35
2019-05-07T10:12:44.034Z,36
2019-05-07T10:13:19.978Z,34
2019-05-07T10:13:56.070Z,35
2019-05-07T10:14:33.675Z,34
2019-05-07T10:15:08.045Z,35
2019-05-07T10:15:56.007Z,35
2019-05-07T10:16:31.976Z,35
2019-05-07T10:17:08.063Z,35
2019-05-07T10:17:44.032Z,35
2019-05-07T10:18:20.002Z,36
2019-05-07T10:19:22.497Z,33
2019-05-07T10:19:56.005Z,33
2019-05-07T10:20:44.019Z,34
2019-05-07T10:21:22.334Z,34
2019-05-07T10:22:07.978Z,34
2019-05-07T10:22:44.065Z,35
2019-05-07T10:23:56.011Z,33
2019-05-07T10:24:32.025Z,34
2019-05-07T10:25:08.058Z,32
2019-05-07T10:25:44.045Z,32
2019-05-07T10:26:19.993Z,32
2019-05-07T10:26:55.960Z,32
2019-05-07T10:27:33.040Z,32
2019-05-07T10:28:32.687Z,32
2019-05-07T10:29:08.063Z,33
2019-05-07T10:29:44.013Z,32
2019-05-07T10:30:22.338Z,32
2019-05-07T10:30:55.992Z,33
2019-05-07T10:32:08.024Z,33
2019-05-07T10:33:08.038Z,34
2019-05-07T10:33:44.014Z,35
2019-05-07T10:34:19.990Z,35
2019-05-07T10:35:07.983Z,36
2019-05-07T10:35:44.079Z,37
2019-05-07T10:36:20.053Z,37
2019-05-07T10:37:32.590Z,37
2019-05-07T10:38:22.306Z,38
2019-05-07T10:38:56.071Z,39
2019-05-07T10:39:44.060Z,38
2019-05-07T10:40:43.994Z,35
2019-05-07T10:42:08.068Z,37
2019-05-07T10:42:44.051Z,37
2019-05-07T10:43:22.486Z,37
2019-05-07T10:43:55.973Z,38
2019-05-07T10:44:32.719Z,39
2019-05-07T10:45:08.027Z,36
2019-05-07T10:45:44.041Z,36
2019-05-07T10:46:32.549Z,36
2019-05-07T10:47:07.986Z,37
2019-05-07T10:47:44.056Z,37
2019-05-07T10:48:22.307Z,38
2019-05-07T10:48:55.989Z,34
2019-05-07T10:49:32.370Z,34
2019-05-07T10:50:08.051Z,33
2019-05-07T10:50:44.082Z,33
2019-05-07T10:51:44.058Z,33
2019-05-07T10:52:32.470Z,35
2019-05-07T10:53:08.025Z,33
2019-05-07T10:53:44.004Z,34
2019-05-07T10:54:22.058Z,34
2019-05-07T10:55:07.964Z,35
2019-05-07T10:55:46.146Z,36
2019-05-07T10:56:22.116Z,36
2019-05-07T10:56:55.983Z,37
2019-05-07T10:57:33.441Z,37
2019-05-07T10:58:08.066Z,38
2019-05-07T10:58:44.018Z,39
2019-05-07T10:59:19.987Z,39
2019-05-07T10:59:55.955Z,38
2019-05-07T11:00:33.715Z,39
2019-05-07T11:01:08.022Z,40
2019-05-07T11:01:43.976Z,39
2019-05-07T11:02:22.212Z,40
2019-05-07T11:02:56.068Z,40
2019-05-07T11:03:33.030Z,41
2019-05-07T11:04:07.971Z,41
2019-05-07T11:04:46.404Z,41
2019-05-07T11:05:22.152Z,40
2019-05-07T11:05:55.998Z,40
2019-05-07T11:06:32.924Z,40
2019-05-07T11:07:07.941Z,36
2019-05-07T11:07:44.050Z,36
2019-05-07T11:08:33.575Z,36
2019-05-07T11:09:08.015Z,36
2019-05-07T11:09:43.973Z,35
2019-05-07T11:10:22.171Z,34
2019-05-07T11:10:56.029Z,33
2019-05-07T11:11:32.622Z,34
2019-05-07T11:12:07.983Z,34
2019-05-07T11:12:43.946Z,33
2019-05-07T11:13:22.326Z,32
2019-05-07T11:13:56.691Z,31
2019-05-07T11:14:32.713Z,30
2019-05-07T11:15:07.933Z,30
2019-05-07T11:15:44.033Z,29
2019-05-07T11:16:21.869Z,29
2019-05-07T11:16:55.972Z,29
2019-05-07T11:17:33.250Z,31
2019-05-07T11:18:08.015Z,29
2019-05-07T11:18:43.984Z,31
2019-05-07T11:19:22.337Z,30
2019-05-07T11:19:55.926Z,31
2019-05-07T11:20:50.010Z,35
2019-05-07T11:21:56.051Z,35
2019-05-07T11:22:33.386Z,34
2019-05-07T11:23:07.929Z,35
2019-05-07T11:23:44.015Z,35
2019-05-07T11:24:32.668Z,35
2019-05-07T11:25:07.983Z,35
2019-05-07T11:26:08.023Z,36
2019-05-07T11:26:43.985Z,37
2019-05-07T11:27:19.987Z,38
2019-05-07T11:28:07.947Z,37
2019-05-07T11:28:56.058Z,36
2019-05-07T11:29:36.822Z,36
2019-05-07T11:30:19.932Z,36
2019-05-07T11:30:56.001Z,36
2019-05-07T11:31:33.655Z,35
2019-05-07T11:32:08.010Z,36
2019-05-07T11:32:44.030Z,36
2019-05-07T11:33:22.261Z,37
2019-05-07T11:33:55.979Z,38
2019-05-07T11:34:33.350Z,37
2019-05-07T11:35:08.029Z,38
2019-05-07T11:35:44.021Z,39
2019-05-07T11:36:34.870Z,39
2019-05-07T11:37:08.024Z,40
2019-05-07T11:37:44.938Z,39
2019-05-07T11:38:25.417Z,38
2019-05-07T11:38:55.994Z,38
2019-05-07T11:39:33.777Z,37
2019-05-07T11:40:07.931Z,37
2019-05-07T11:40:44.037Z,36
2019-05-07T11:41:19.999Z,36
2019-05-07T11:41:55.961Z,37
2019-05-07T11:42:32.041Z,37
2019-05-07T11:43:08.017Z,37
2019-05-07T11:44:07.935Z,38
2019-05-07T11:44:55.932Z,38
2019-05-07T11:45:32.682Z,38
2019-05-07T11:46:07.982Z,39
2019-05-07T11:46:45.026Z,39
2019-05-07T11:47:32.564Z,38
2019-05-07T11:48:07.923Z,38
2019-05-07T11:48:44.016Z,36
2019-05-07T11:49:22.216Z,36
2019-05-07T11:49:55.963Z,36
2019-05-07T11:50:33.585Z,36
2019-05-07T11:51:19.919Z,36
2019-05-07T11:51:56.017Z,36
2019-05-07T11:52:36.350Z,36
2019-05-07T11:53:07.946Z,37
2019-05-07T11:53:43.915Z,37